sensor_id;sensor_type;location;lat;lon;timestamp;temperature;humidity
314;DHT22;143;51.634;7.112;2022-11-02T00:02:22;13.40;99.90
314;DHT22;143;51.634;7.112;2022-11-02T00:04:47;13.40;99.90
314;DHT22;143;51.634;7.112;2022-11-02T00:07:13;13.40;99.90
314;DHT22;143;51.634;7.112;2022-11-02T00:09:39;13.40;99.90
314;DHT22;143;51.634;7.112;2022-11-02T00:12:05;13.40;99.90
314;DHT22;143;51.634;7.112;2022-11-02T00:14:31;13.40;99.90
314;DHT22;143;51.634;7.112;2022-11-02T00:16:57;13.50;99.90
314;DHT22;143;51.634;7.112;2022-11-02T00:19:22;13.50;99.90
314;DHT22;143;51.634;7.112;2022-11-02T00:21:48;13.50;99.90
314;DHT22;143;51.634;7.112;2022-11-02T00:24:14;13.50;99.90
314;DHT22;143;51.634;7.112;2022-11-02T00:26:39;13.50;99.90
314;DHT22;143;51.634;7.112;2022-11-02T00:29:06;13.50;99.90
314;DHT22;143;51.634;7.112;2022-11-02T00:31:32;13.50;99.90
314;DHT22;143;51.634;7.112;2022-11-02T00:33:58;13.50;99.90
314;DHT22;143;51.634;7.112;2022-11-02T00:36:24;13.50;99.90
314;DHT22;143;51.634;7.112;2022-11-02T00:38:50;13.40;99.90
314;DHT22;143;51.634;7.112;2022-11-02T00:41:19;13.40;99.90
314;DHT22;143;51.634;7.112;2022-11-02T00:43:45;13.30;99.90
314;DHT22;143;51.634;7.112;2022-11-02T00:46:11;13.30;99.90
314;DHT22;143;51.634;7.112;2022-11-02T00:48:36;13.30;99.90
314;DHT22;143;51.634;7.112;2022-11-02T00:51:02;13.30;99.90
314;DHT22;143;51.634;7.112;2022-11-02T00:53:28;13.30;99.90
314;DHT22;143;51.634;7.112;2022-11-02T00:55:54;13.30;99.90
314;DHT22;143;51.634;7.112;2022-11-02T00:58:20;13.30;99.90
314;DHT22;143;51.634;7.112;2022-11-02T01:00:46;13.30;99.90
314;DHT22;143;51.634;7.112;2022-11-02T01:03:11;13.30;99.90
314;DHT22;143;51.634;7.112;2022-11-02T01:05:37;13.40;99.90
314;DHT22;143;51.634;7.112;2022-11-02T01:08:03;13.40;99.90
314;DHT22;143;51.634;7.112;2022-11-02T01:10:29;13.40;99.90
314;DHT22;143;51.634;7.112;2022-11-02T01:12:54;13.40;99.90
314;DHT22;143;51.634;7.112;2022-11-02T01:15:20;13.40;99.90
314;DHT22;143;51.634;7.112;2022-11-02T01:17:46;13.50;99.90
314;DHT22;143;51.634;7.112;2022-11-02T01:20:12;13.50;99.90
314;DHT22;143;51.634;7.112;2022-11-02T01:22:37;13.50;99.90
314;DHT22;143;51.634;7.112;2022-11-02T01:25:03;13.60;99.90
314;DHT22;143;51.634;7.112;2022-11-02T01:27:29;13.60;99.90
314;DHT22;143;51.634;7.112;2022-11-02T01:29:55;13.60;99.90
314;DHT22;143;51.634;7.112;2022-11-02T01:32:20;13.60;99.90
314;DHT22;143;51.634;7.112;2022-11-02T01:34:46;13.60;99.90
314;DHT22;143;51.634;7.112;2022-11-02T01:37:12;13.60;99.90
314;DHT22;143;51.634;7.112;2022-11-02T01:39:37;13.60;99.90
314;DHT22;143;51.634;7.112;2022-11-02T01:42:04;13.60;99.90
314;DHT22;143;51.634;7.112;2022-11-02T01:44:40;13.60;99.90
314;DHT22;143;51.634;7.112;2022-11-02T01:47:16;13.60;99.90
314;DHT22;143;51.634;7.112;2022-11-02T01:49:44;13.70;99.90
314;DHT22;143;51.634;7.112;2022-11-02T01:52:18;13.70;99.90
314;DHT22;143;51.634;7.112;2022-11-02T01:54:54;13.70;99.90
314;DHT22;143;51.634;7.112;2022-11-02T01:57:21;13.70;99.90
314;DHT22;143;51.634;7.112;2022-11-02T01:59:57;13.60;99.90
314;DHT22;143;51.634;7.112;2022-11-02T02:02:26;13.60;99.90
314;DHT22;143;51.634;7.112;2022-11-02T02:04:58;13.60;99.90
314;DHT22;143;51.634;7.112;2022-11-02T02:07:26;13.60;99.90
314;DHT22;143;51.634;7.112;2022-11-02T02:09:53;13.60;99.90
314;DHT22;143;51.634;7.112;2022-11-02T02:12:20;13.60;99.90
314;DHT22;143;51.634;7.112;2022-11-02T02:14:46;13.50;99.90
314;DHT22;143;51.634;7.112;2022-11-02T02:17:44;13.50;99.90
314;DHT22;143;51.634;7.112;2022-11-02T02:20:41;13.50;99.90
314;DHT22;143;51.634;7.112;2022-11-02T02:26:17;13.40;99.90
314;DHT22;143;51.634;7.112;2022-11-02T02:28:47;13.40;99.90
314;DHT22;143;51.634;7.112;2022-11-02T02:42:20;13.40;99.90
314;DHT22;143;51.634;7.112;2022-11-02T02:44:43;13.40;99.90
314;DHT22;143;51.634;7.112;2022-11-02T02:47:15;13.40;99.90
314;DHT22;143;51.634;7.112;2022-11-02T02:49:47;13.40;99.90
314;DHT22;143;51.634;7.112;2022-11-02T02:52:16;13.40;99.90
314;DHT22;143;51.634;7.112;2022-11-02T02:54:45;13.40;99.90
314;DHT22;143;51.634;7.112;2022-11-02T02:57:20;13.40;99.90
314;DHT22;143;51.634;7.112;2022-11-02T02:59:47;13.40;99.90
314;DHT22;143;51.634;7.112;2022-11-02T03:02:27;13.40;99.90
314;DHT22;143;51.634;7.112;2022-11-02T03:04:54;13.40;99.90
314;DHT22;143;51.634;7.112;2022-11-02T03:07:24;13.40;99.90
314;DHT22;143;51.634;7.112;2022-11-02T03:12:55;13.40;99.90
314;DHT22;143;51.634;7.112;2022-11-02T03:15:40;13.50;99.90
314;DHT22;143;51.634;7.112;2022-11-02T03:18:25;13.40;99.90
314;DHT22;143;51.634;7.112;2022-11-02T03:21:04;13.40;99.90
314;DHT22;143;51.634;7.112;2022-11-02T03:23:53;13.40;99.90
314;DHT22;143;51.634;7.112;2022-11-02T03:29:08;13.40;99.90
314;DHT22;143;51.634;7.112;2022-11-02T03:31:36;13.50;99.90
314;DHT22;143;51.634;7.112;2022-11-02T03:34:10;13.50;99.90
314;DHT22;143;51.634;7.112;2022-11-02T03:36:50;13.50;99.90
314;DHT22;143;51.634;7.112;2022-11-02T03:39:20;13.50;99.90
314;DHT22;143;51.634;7.112;2022-11-02T03:41:50;13.60;99.90
314;DHT22;143;51.634;7.112;2022-11-02T03:44:20;13.60;99.90
314;DHT22;143;51.634;7.112;2022-11-02T03:46:51;13.60;99.90
314;DHT22;143;51.634;7.112;2022-11-02T03:49:19;13.60;99.90
314;DHT22;143;51.634;7.112;2022-11-02T03:51:46;13.60;99.90
314;DHT22;143;51.634;7.112;2022-11-02T03:54:40;13.50;99.90
314;DHT22;143;51.634;7.112;2022-11-02T03:57:11;13.50;99.90
314;DHT22;143;51.634;7.112;2022-11-02T03:59:38;13.50;99.90
314;DHT22;143;51.634;7.112;2022-11-02T04:02:03;13.50;99.90
314;DHT22;143;51.634;7.112;2022-11-02T04:04:29;13.40;99.90
314;DHT22;143;51.634;7.112;2022-11-02T04:06:55;13.40;99.90
314;DHT22;143;51.634;7.112;2022-11-02T04:09:21;13.40;99.90
314;DHT22;143;51.634;7.112;2022-11-02T04:11:47;13.40;99.90
314;DHT22;143;51.634;7.112;2022-11-02T04:14:30;13.40;99.90
314;DHT22;143;51.634;7.112;2022-11-02T04:17:03;13.40;99.90
314;DHT22;143;51.634;7.112;2022-11-02T04:19:47;13.40;99.90
314;DHT22;143;51.634;7.112;2022-11-02T04:22:13;13.40;99.90
314;DHT22;143;51.634;7.112;2022-11-02T04:24:57;13.40;99.90
314;DHT22;143;51.634;7.112;2022-11-02T04:27:52;13.30;99.90
314;DHT22;143;51.634;7.112;2022-11-02T04:30:19;13.30;99.90
314;DHT22;143;51.634;7.112;2022-11-02T04:32:48;13.20;99.90
314;DHT22;143;51.634;7.112;2022-11-02T04:35:33;13.20;99.90
314;DHT22;143;51.634;7.112;2022-11-02T04:37:59;13.20;99.90
314;DHT22;143;51.634;7.112;2022-11-02T04:40:44;13.10;99.90
314;DHT22;143;51.634;7.112;2022-11-02T04:43:09;13.10;99.90
314;DHT22;143;51.634;7.112;2022-11-02T04:45:36;13.10;99.90
314;DHT22;143;51.634;7.112;2022-11-02T04:48:04;13.10;99.90
314;DHT22;143;51.634;7.112;2022-11-02T04:50:30;13.10;99.90
314;DHT22;143;51.634;7.112;2022-11-02T04:52:57;13.10;99.90
314;DHT22;143;51.634;7.112;2022-11-02T04:55:24;13.10;99.90
314;DHT22;143;51.634;7.112;2022-11-02T04:57:49;13.10;99.90
314;DHT22;143;51.634;7.112;2022-11-02T05:00:15;13.10;99.90
314;DHT22;143;51.634;7.112;2022-11-02T05:02:41;13.10;99.90
314;DHT22;143;51.634;7.112;2022-11-02T05:05:07;13.10;99.90
314;DHT22;143;51.634;7.112;2022-11-02T05:07:33;13.00;99.90
314;DHT22;143;51.634;7.112;2022-11-02T05:09:59;13.00;99.90
314;DHT22;143;51.634;7.112;2022-11-02T05:12:24;13.00;99.90
314;DHT22;143;51.634;7.112;2022-11-02T05:14:50;12.90;99.90
314;DHT22;143;51.634;7.112;2022-11-02T05:17:16;12.90;99.90
314;DHT22;143;51.634;7.112;2022-11-02T05:19:41;12.90;99.90
314;DHT22;143;51.634;7.112;2022-11-02T05:22:07;12.90;99.90
314;DHT22;143;51.634;7.112;2022-11-02T05:24:33;12.90;99.90
314;DHT22;143;51.634;7.112;2022-11-02T05:26:58;12.90;99.90
314;DHT22;143;51.634;7.112;2022-11-02T05:29:27;12.90;99.90
314;DHT22;143;51.634;7.112;2022-11-02T05:31:53;12.90;99.90
314;DHT22;143;51.634;7.112;2022-11-02T05:34:18;12.90;99.90
314;DHT22;143;51.634;7.112;2022-11-02T05:36:47;12.90;99.90
314;DHT22;143;51.634;7.112;2022-11-02T05:39:12;12.90;99.90
314;DHT22;143;51.634;7.112;2022-11-02T05:41:38;12.80;99.90
314;DHT22;143;51.634;7.112;2022-11-02T05:44:04;12.80;99.90
314;DHT22;143;51.634;7.112;2022-11-02T05:46:29;12.80;99.90
314;DHT22;143;51.634;7.112;2022-11-02T05:48:55;12.80;99.90
314;DHT22;143;51.634;7.112;2022-11-02T05:51:21;12.70;99.90
314;DHT22;143;51.634;7.112;2022-11-02T05:53:46;12.70;99.90
314;DHT22;143;51.634;7.112;2022-11-02T05:56:12;12.70;99.90
314;DHT22;143;51.634;7.112;2022-11-02T05:58:39;12.60;99.90
314;DHT22;143;51.634;7.112;2022-11-02T06:01:06;12.60;99.90
314;DHT22;143;51.634;7.112;2022-11-02T06:03:32;12.60;99.90
314;DHT22;143;51.634;7.112;2022-11-02T06:06:00;12.60;99.90
314;DHT22;143;51.634;7.112;2022-11-02T06:08:26;12.60;99.90
314;DHT22;143;51.634;7.112;2022-11-02T06:10:52;12.60;99.90
314;DHT22;143;51.634;7.112;2022-11-02T06:13:18;12.60;99.90
314;DHT22;143;51.634;7.112;2022-11-02T06:15:44;12.60;99.90
314;DHT22;143;51.634;7.112;2022-11-02T06:18:10;12.60;99.90
314;DHT22;143;51.634;7.112;2022-11-02T06:20:35;12.60;99.90
314;DHT22;143;51.634;7.112;2022-11-02T06:23:01;12.50;99.90
314;DHT22;143;51.634;7.112;2022-11-02T06:25:27;12.50;99.90
314;DHT22;143;51.634;7.112;2022-11-02T06:27:54;12.50;99.90
314;DHT22;143;51.634;7.112;2022-11-02T06:30:22;12.50;99.90
314;DHT22;143;51.634;7.112;2022-11-02T06:32:49;12.50;99.90
314;DHT22;143;51.634;7.112;2022-11-02T06:35:16;12.60;99.90
314;DHT22;143;51.634;7.112;2022-11-02T06:37:43;12.60;99.90
314;DHT22;143;51.634;7.112;2022-11-02T06:40:09;12.60;99.90
314;DHT22;143;51.634;7.112;2022-11-02T06:42:35;12.60;99.90
314;DHT22;143;51.634;7.112;2022-11-02T06:45:02;12.60;99.90
314;DHT22;143;51.634;7.112;2022-11-02T06:47:32;12.60;99.90
314;DHT22;143;51.634;7.112;2022-11-02T06:49:58;12.60;99.90
314;DHT22;143;51.634;7.112;2022-11-02T06:52:25;12.60;99.90
314;DHT22;143;51.634;7.112;2022-11-02T06:54:51;12.60;99.90
314;DHT22;143;51.634;7.112;2022-11-02T06:57:17;12.50;99.90
314;DHT22;143;51.634;7.112;2022-11-02T06:59:42;12.60;99.90
314;DHT22;143;51.634;7.112;2022-11-02T07:02:08;12.50;99.90
314;DHT22;143;51.634;7.112;2022-11-02T07:04:34;12.50;99.90
314;DHT22;143;51.634;7.112;2022-11-02T07:06:59;12.60;99.90
314;DHT22;143;51.634;7.112;2022-11-02T07:09:25;12.60;99.90
314;DHT22;143;51.634;7.112;2022-11-02T07:11:51;12.60;99.90
314;DHT22;143;51.634;7.112;2022-11-02T07:14:16;12.60;99.90
314;DHT22;143;51.634;7.112;2022-11-02T07:16:42;12.60;99.90
314;DHT22;143;51.634;7.112;2022-11-02T07:19:08;12.60;99.90
314;DHT22;143;51.634;7.112;2022-11-02T07:21:34;12.60;99.90
314;DHT22;143;51.634;7.112;2022-11-02T07:24:00;12.60;99.90
314;DHT22;143;51.634;7.112;2022-11-02T07:26:25;12.60;99.90
314;DHT22;143;51.634;7.112;2022-11-02T07:28:51;12.60;99.90
314;DHT22;143;51.634;7.112;2022-11-02T07:31:17;12.60;99.90
314;DHT22;143;51.634;7.112;2022-11-02T07:33:43;12.50;99.90
314;DHT22;143;51.634;7.112;2022-11-02T07:36:09;12.50;99.90
314;DHT22;143;51.634;7.112;2022-11-02T07:38:35;12.60;99.90
314;DHT22;143;51.634;7.112;2022-11-02T07:41:01;12.60;99.90
314;DHT22;143;51.634;7.112;2022-11-02T07:43:27;12.60;99.90
314;DHT22;143;51.634;7.112;2022-11-02T07:45:53;12.60;99.90
314;DHT22;143;51.634;7.112;2022-11-02T07:48:19;12.60;99.90
314;DHT22;143;51.634;7.112;2022-11-02T07:50:45;12.60;99.90
314;DHT22;143;51.634;7.112;2022-11-02T07:53:11;12.60;99.90
314;DHT22;143;51.634;7.112;2022-11-02T07:55:36;12.60;99.90
314;DHT22;143;51.634;7.112;2022-11-02T07:58:05;12.60;99.90
314;DHT22;143;51.634;7.112;2022-11-02T08:00:36;12.60;99.90
314;DHT22;143;51.634;7.112;2022-11-02T08:03:03;12.60;99.90
314;DHT22;143;51.634;7.112;2022-11-02T08:05:30;12.60;99.90
314;DHT22;143;51.634;7.112;2022-11-02T08:08:03;12.60;99.90
314;DHT22;143;51.634;7.112;2022-11-02T08:10:30;12.60;99.90
314;DHT22;143;51.634;7.112;2022-11-02T08:12:57;12.60;99.90
314;DHT22;143;51.634;7.112;2022-11-02T08:15:23;12.60;99.90
314;DHT22;143;51.634;7.112;2022-11-02T08:18:02;12.60;99.90
314;DHT22;143;51.634;7.112;2022-11-02T08:20:29;12.60;99.90
314;DHT22;143;51.634;7.112;2022-11-02T08:22:55;12.70;99.90
314;DHT22;143;51.634;7.112;2022-11-02T08:25:21;12.70;99.90
314;DHT22;143;51.634;7.112;2022-11-02T08:27:47;12.80;99.90
314;DHT22;143;51.634;7.112;2022-11-02T08:30:12;12.80;99.90
314;DHT22;143;51.634;7.112;2022-11-02T08:32:38;12.90;99.90
314;DHT22;143;51.634;7.112;2022-11-02T08:35:04;12.80;99.90
314;DHT22;143;51.634;7.112;2022-11-02T08:37:30;12.80;99.90
314;DHT22;143;51.634;7.112;2022-11-02T08:39:55;12.80;99.90
314;DHT22;143;51.634;7.112;2022-11-02T08:42:21;12.80;99.90
314;DHT22;143;51.634;7.112;2022-11-02T08:44:47;12.80;99.90
314;DHT22;143;51.634;7.112;2022-11-02T08:47:13;12.90;99.90
314;DHT22;143;51.634;7.112;2022-11-02T08:49:40;12.90;99.90
314;DHT22;143;51.634;7.112;2022-11-02T08:52:06;12.90;99.90
314;DHT22;143;51.634;7.112;2022-11-02T08:54:32;12.80;99.90
314;DHT22;143;51.634;7.112;2022-11-02T08:56:57;12.80;99.90
314;DHT22;143;51.634;7.112;2022-11-02T08:59:23;12.90;99.90
314;DHT22;143;51.634;7.112;2022-11-02T09:01:49;12.90;99.90
314;DHT22;143;51.634;7.112;2022-11-02T09:04:14;13.00;99.90
314;DHT22;143;51.634;7.112;2022-11-02T09:06:40;13.00;99.90
314;DHT22;143;51.634;7.112;2022-11-02T09:09:06;13.10;99.90
314;DHT22;143;51.634;7.112;2022-11-02T09:11:31;13.10;99.90
314;DHT22;143;51.634;7.112;2022-11-02T09:13:57;13.30;99.90
314;DHT22;143;51.634;7.112;2022-11-02T09:16:23;13.40;99.90
314;DHT22;143;51.634;7.112;2022-11-02T09:18:48;13.50;99.90
314;DHT22;143;51.634;7.112;2022-11-02T09:21:14;13.70;99.90
314;DHT22;143;51.634;7.112;2022-11-02T09:23:40;13.80;99.90
314;DHT22;143;51.634;7.112;2022-11-02T09:26:05;13.90;99.90
314;DHT22;143;51.634;7.112;2022-11-02T09:28:31;14.00;99.90
314;DHT22;143;51.634;7.112;2022-11-02T09:30:57;14.20;99.90
314;DHT22;143;51.634;7.112;2022-11-02T09:33:22;14.20;99.90
314;DHT22;143;51.634;7.112;2022-11-02T09:35:48;14.30;99.90
314;DHT22;143;51.634;7.112;2022-11-02T09:38:15;14.40;99.90
314;DHT22;143;51.634;7.112;2022-11-02T09:48:56;14.30;99.90
314;DHT22;143;51.634;7.112;2022-11-02T09:51:27;14.20;99.90
314;DHT22;143;51.634;7.112;2022-11-02T09:54:15;14.20;99.90
314;DHT22;143;51.634;7.112;2022-11-02T09:56:44;14.20;99.90
314;DHT22;143;51.634;7.112;2022-11-02T10:07:08;14.70;99.90
314;DHT22;143;51.634;7.112;2022-11-02T10:12:42;15.10;84.30
314;DHT22;143;51.634;7.112;2022-11-02T10:15:16;15.10;27.40
314;DHT22;143;51.634;7.112;2022-11-02T10:17:45;15.00;1.00
314;DHT22;143;51.634;7.112;2022-11-02T10:20:24;14.90;1.00
314;DHT22;143;51.634;7.112;2022-11-02T10:22:50;14.90;1.00
314;DHT22;143;51.634;7.112;2022-11-02T10:25:18;14.90;1.00
314;DHT22;143;51.634;7.112;2022-11-02T10:27:48;15.10;1.00
314;DHT22;143;51.634;7.112;2022-11-02T10:30:19;15.40;1.00
314;DHT22;143;51.634;7.112;2022-11-02T10:32:50;15.70;1.00
314;DHT22;143;51.634;7.112;2022-11-02T10:46:36;17.10;1.00
314;DHT22;143;51.634;7.112;2022-11-02T10:51:52;18.50;1.00
314;DHT22;143;51.634;7.112;2022-11-02T10:54:18;18.70;1.00
314;DHT22;143;51.634;7.112;2022-11-02T10:56:44;19.20;1.00
314;DHT22;143;51.634;7.112;2022-11-02T10:59:19;20.30;1.00
314;DHT22;143;51.634;7.112;2022-11-02T11:04:32;21.50;1.00
314;DHT22;143;51.634;7.112;2022-11-02T11:07:06;21.90;1.00
314;DHT22;143;51.634;7.112;2022-11-02T11:09:51;22.40;1.00
314;DHT22;143;51.634;7.112;2022-11-02T11:12:24;22.80;1.00
314;DHT22;143;51.634;7.112;2022-11-02T11:14:58;23.80;1.00
314;DHT22;143;51.634;7.112;2022-11-02T11:17:32;24.60;1.00
314;DHT22;143;51.634;7.112;2022-11-02T11:19:59;25.10;1.00
314;DHT22;143;51.634;7.112;2022-11-02T11:22:31;25.60;1.00
314;DHT22;143;51.634;7.112;2022-11-02T11:25:21;25.20;1.00
314;DHT22;143;51.634;7.112;2022-11-02T11:27:52;24.20;1.00
314;DHT22;143;51.634;7.112;2022-11-02T11:30:30;23.20;1.00
314;DHT22;143;51.634;7.112;2022-11-02T11:32:58;22.90;1.00
314;DHT22;143;51.634;7.112;2022-11-02T11:35:29;22.80;1.00
314;DHT22;143;51.634;7.112;2022-11-02T11:38:06;22.70;1.00
314;DHT22;143;51.634;7.112;2022-11-02T11:40:38;22.60;1.00
314;DHT22;143;51.634;7.112;2022-11-02T11:43:14;22.40;1.00
314;DHT22;143;51.634;7.112;2022-11-02T11:50:56;20.40;1.00
314;DHT22;143;51.634;7.112;2022-11-02T11:53:24;19.70;1.00
314;DHT22;143;51.634;7.112;2022-11-02T11:55:52;19.30;1.00
314;DHT22;143;51.634;7.112;2022-11-02T12:01:05;19.00;1.00
314;DHT22;143;51.634;7.112;2022-11-02T12:03:32;19.20;1.00
314;DHT22;143;51.634;7.112;2022-11-02T12:06:16;19.20;1.00
314;DHT22;143;51.634;7.112;2022-11-02T12:12:20;18.50;1.00
314;DHT22;143;51.634;7.112;2022-11-02T12:15:50;18.50;1.00
314;DHT22;143;51.634;7.112;2022-11-02T12:18:13;18.70;1.00
314;DHT22;143;51.634;7.112;2022-11-02T12:31:17;18.60;1.00
314;DHT22;143;51.634;7.112;2022-11-02T12:42:15;18.40;1.00
314;DHT22;143;51.634;7.112;2022-11-02T12:47:54;18.40;1.00
314;DHT22;143;51.634;7.112;2022-11-02T12:56:23;19.50;1.00
314;DHT22;143;51.634;7.112;2022-11-02T12:58:51;19.90;1.00
314;DHT22;143;51.634;7.112;2022-11-02T13:01:25;20.10;1.00
314;DHT22;143;51.634;7.112;2022-11-02T13:04:13;20.20;1.00
314;DHT22;143;51.634;7.112;2022-11-02T13:06:42;20.20;1.00
314;DHT22;143;51.634;7.112;2022-11-02T13:11:59;20.50;1.00
314;DHT22;143;51.634;7.112;2022-11-02T13:14:28;20.50;1.00
314;DHT22;143;51.634;7.112;2022-11-02T13:17:35;20.60;1.00
314;DHT22;143;51.634;7.112;2022-11-02T13:22:43;20.40;1.00
314;DHT22;143;51.634;7.112;2022-11-02T13:25:19;20.20;1.00
314;DHT22;143;51.634;7.112;2022-11-02T13:27:52;20.00;1.00
314;DHT22;143;51.634;7.112;2022-11-02T13:30:19;19.40;1.00
314;DHT22;143;51.634;7.112;2022-11-02T13:33:48;18.80;1.00
314;DHT22;143;51.634;7.112;2022-11-02T13:36:06;18.20;1.00
314;DHT22;143;51.634;7.112;2022-11-02T13:38:39;17.80;1.00
314;DHT22;143;51.634;7.112;2022-11-02T13:46:53;17.20;1.00
314;DHT22;143;51.634;7.112;2022-11-02T13:49:28;17.20;1.00
314;DHT22;143;51.634;7.112;2022-11-02T13:52:04;17.30;1.00
314;DHT22;143;51.634;7.112;2022-11-02T13:54:39;17.40;1.00
314;DHT22;143;51.634;7.112;2022-11-02T13:59:48;17.30;1.00
314;DHT22;143;51.634;7.112;2022-11-02T14:02:16;17.10;1.00
314;DHT22;143;51.634;7.112;2022-11-02T14:04:43;16.80;1.00
314;DHT22;143;51.634;7.112;2022-11-02T14:07:20;16.80;1.00
314;DHT22;143;51.634;7.112;2022-11-02T14:09:47;16.70;1.00
314;DHT22;143;51.634;7.112;2022-11-02T14:14:41;16.40;1.00
314;DHT22;143;51.634;7.112;2022-11-02T14:17:12;16.30;1.00
314;DHT22;143;51.634;7.112;2022-11-02T14:22:14;16.10;1.00
314;DHT22;143;51.634;7.112;2022-11-02T14:32:37;16.60;1.00
314;DHT22;143;51.634;7.112;2022-11-02T14:45:06;16.50;1.00
314;DHT22;143;51.634;7.112;2022-11-02T14:47:32;16.40;1.00
314;DHT22;143;51.634;7.112;2022-11-02T14:52:37;16.30;1.00
314;DHT22;143;51.634;7.112;2022-11-02T14:57:51;16.20;1.00
314;DHT22;143;51.634;7.112;2022-11-02T15:00:24;16.10;1.00
314;DHT22;143;51.634;7.112;2022-11-02T15:02:51;16.10;1.00
314;DHT22;143;51.634;7.112;2022-11-02T15:05:35;16.00;1.00
314;DHT22;143;51.634;7.112;2022-11-02T15:08:03;15.90;1.00
314;DHT22;143;51.634;7.112;2022-11-02T15:26:48;15.60;1.00
314;DHT22;143;51.634;7.112;2022-11-02T15:29:35;15.60;1.00
314;DHT22;143;51.634;7.112;2022-11-02T15:32:11;15.50;1.00
314;DHT22;143;51.634;7.112;2022-11-02T15:34:47;15.40;1.00
314;DHT22;143;51.634;7.112;2022-11-02T15:37:19;15.30;1.00
314;DHT22;143;51.634;7.112;2022-11-02T15:39:56;15.20;1.00
314;DHT22;143;51.634;7.112;2022-11-02T15:45:25;15.00;1.00
314;DHT22;143;51.634;7.112;2022-11-02T15:48:14;15.00;1.00
314;DHT22;143;51.634;7.112;2022-11-02T15:53:54;14.70;1.00
314;DHT22;143;51.634;7.112;2022-11-02T15:57:01;14.70;1.00
314;DHT22;143;51.634;7.112;2022-11-02T16:02:39;14.60;1.00
314;DHT22;143;51.634;7.112;2022-11-02T16:05:06;14.60;1.00
314;DHT22;143;51.634;7.112;2022-11-02T16:07:41;14.60;1.00
314;DHT22;143;51.634;7.112;2022-11-02T16:10:28;14.60;1.00
314;DHT22;143;51.634;7.112;2022-11-02T16:15:32;14.50;1.00
314;DHT22;143;51.634;7.112;2022-11-02T16:17:58;14.50;1.00
314;DHT22;143;51.634;7.112;2022-11-02T16:20:44;14.50;1.00
314;DHT22;143;51.634;7.112;2022-11-02T16:23:15;14.40;1.00
314;DHT22;143;51.634;7.112;2022-11-02T16:25:45;14.40;1.00
314;DHT22;143;51.634;7.112;2022-11-02T16:28:27;14.40;1.00
314;DHT22;143;51.634;7.112;2022-11-02T16:33:56;14.30;1.00
314;DHT22;143;51.634;7.112;2022-11-02T16:36:25;14.20;1.00
314;DHT22;143;51.634;7.112;2022-11-02T16:41:34;14.10;1.00
314;DHT22;143;51.634;7.112;2022-11-02T16:44:07;14.10;1.00
314;DHT22;143;51.634;7.112;2022-11-02T16:46:46;14.10;1.00
314;DHT22;143;51.634;7.112;2022-11-02T16:49:19;14.00;1.00
314;DHT22;143;51.634;7.112;2022-11-02T16:51:55;13.90;1.00
314;DHT22;143;51.634;7.112;2022-11-02T16:56:53;13.90;1.00
314;DHT22;143;51.634;7.112;2022-11-02T16:59:19;13.80;1.00
314;DHT22;143;51.634;7.112;2022-11-02T17:01:46;13.80;1.00
314;DHT22;143;51.634;7.112;2022-11-02T17:04:22;13.70;1.00
314;DHT22;143;51.634;7.112;2022-11-02T17:06:50;13.70;1.00
314;DHT22;143;51.634;7.112;2022-11-02T17:11:50;13.60;1.00
314;DHT22;143;51.634;7.112;2022-11-02T17:14:18;13.60;1.00
314;DHT22;143;51.634;7.112;2022-11-02T17:17:42;13.50;1.00
314;DHT22;143;51.634;7.112;2022-11-02T17:24:46;13.50;1.00
314;DHT22;143;51.634;7.112;2022-11-02T17:27:25;13.40;8.00
314;DHT22;143;51.634;7.112;2022-11-02T17:29:53;13.40;16.00
314;DHT22;143;51.634;7.112;2022-11-02T17:32:20;13.30;23.70
314;DHT22;143;51.634;7.112;2022-11-02T17:34:50;13.30;33.60
314;DHT22;143;51.634;7.112;2022-11-02T17:37:35;13.20;44.80
314;DHT22;143;51.634;7.112;2022-11-02T17:40:01;13.20;57.80
314;DHT22;143;51.634;7.112;2022-11-02T17:42:27;13.10;66.90
314;DHT22;143;51.634;7.112;2022-11-02T17:45:29;13.10;77.70
314;DHT22;143;51.634;7.112;2022-11-02T17:47:57;13.00;89.80
314;DHT22;143;51.634;7.112;2022-11-02T17:50:24;13.00;93.70
314;DHT22;143;51.634;7.112;2022-11-02T17:52:54;12.90;97.00
314;DHT22;143;51.634;7.112;2022-11-02T17:55:25;12.80;99.90
314;DHT22;143;51.634;7.112;2022-11-02T17:57:52;12.80;99.90
314;DHT22;143;51.634;7.112;2022-11-02T18:00:18;12.80;99.90
314;DHT22;143;51.634;7.112;2022-11-02T18:02:51;12.70;99.90
314;DHT22;143;51.634;7.112;2022-11-02T18:05:25;12.60;99.90
314;DHT22;143;51.634;7.112;2022-11-02T18:07:54;12.60;99.90
314;DHT22;143;51.634;7.112;2022-11-02T18:10:22;12.50;99.90
314;DHT22;143;51.634;7.112;2022-11-02T18:12:48;12.50;99.90
314;DHT22;143;51.634;7.112;2022-11-02T18:15:18;12.40;99.90
314;DHT22;143;51.634;7.112;2022-11-02T18:17:45;12.40;99.90
314;DHT22;143;51.634;7.112;2022-11-02T18:20:12;12.30;99.90
314;DHT22;143;51.634;7.112;2022-11-02T18:22:38;12.30;99.90
314;DHT22;143;51.634;7.112;2022-11-02T18:25:10;12.20;99.90
314;DHT22;143;51.634;7.112;2022-11-02T18:27:37;12.20;99.90
314;DHT22;143;51.634;7.112;2022-11-02T18:30:05;12.20;99.90
314;DHT22;143;51.634;7.112;2022-11-02T18:32:31;12.10;99.90
314;DHT22;143;51.634;7.112;2022-11-02T18:34:57;12.00;99.90
314;DHT22;143;51.634;7.112;2022-11-02T18:37:23;12.00;99.90
314;DHT22;143;51.634;7.112;2022-11-02T18:39:49;12.00;99.90
314;DHT22;143;51.634;7.112;2022-11-02T18:42:14;11.90;99.90
314;DHT22;143;51.634;7.112;2022-11-02T18:44:40;11.90;99.90
314;DHT22;143;51.634;7.112;2022-11-02T18:47:05;11.90;99.90
314;DHT22;143;51.634;7.112;2022-11-02T18:49:32;11.90;99.90
314;DHT22;143;51.634;7.112;2022-11-02T18:51:58;11.90;99.90
314;DHT22;143;51.634;7.112;2022-11-02T18:54:23;11.80;99.90
314;DHT22;143;51.634;7.112;2022-11-02T18:56:49;11.80;99.90
314;DHT22;143;51.634;7.112;2022-11-02T18:59:15;11.80;99.90
314;DHT22;143;51.634;7.112;2022-11-02T19:01:40;11.80;99.90
314;DHT22;143;51.634;7.112;2022-11-02T19:04:06;11.80;99.90
314;DHT22;143;51.634;7.112;2022-11-02T19:06:32;11.80;99.90
314;DHT22;143;51.634;7.112;2022-11-02T19:09:18;11.80;99.90
314;DHT22;143;51.634;7.112;2022-11-02T19:12:02;11.80;99.90
314;DHT22;143;51.634;7.112;2022-11-02T19:14:40;11.80;99.90
314;DHT22;143;51.634;7.112;2022-11-02T19:17:07;11.70;99.90
314;DHT22;143;51.634;7.112;2022-11-02T19:19:33;11.70;99.90
314;DHT22;143;51.634;7.112;2022-11-02T19:22:00;11.70;99.90
314;DHT22;143;51.634;7.112;2022-11-02T19:24:26;11.70;99.90
314;DHT22;143;51.634;7.112;2022-11-02T19:26:52;11.70;99.90
314;DHT22;143;51.634;7.112;2022-11-02T19:29:18;11.70;99.90
314;DHT22;143;51.634;7.112;2022-11-02T19:31:44;11.70;99.90
314;DHT22;143;51.634;7.112;2022-11-02T19:34:10;11.70;99.90
314;DHT22;143;51.634;7.112;2022-11-02T19:36:35;11.70;99.90
314;DHT22;143;51.634;7.112;2022-11-02T19:39:02;11.60;99.90
314;DHT22;143;51.634;7.112;2022-11-02T19:41:29;11.60;99.90
314;DHT22;143;51.634;7.112;2022-11-02T19:43:55;11.60;99.90
314;DHT22;143;51.634;7.112;2022-11-02T19:46:22;11.60;99.90
314;DHT22;143;51.634;7.112;2022-11-02T19:48:49;11.60;99.90
314;DHT22;143;51.634;7.112;2022-11-02T19:51:17;11.60;99.90
314;DHT22;143;51.634;7.112;2022-11-02T19:53:49;11.60;99.90
314;DHT22;143;51.634;7.112;2022-11-02T19:56:16;11.70;99.90
314;DHT22;143;51.634;7.112;2022-11-02T19:58:44;11.70;99.90